Time;durP1;ratioP1;P1;durP2;ratioP2;P2;SDS_P1;SDS_P2;PMS_P1;PMS_P2;Temp;Humidity;BMP_temperature;BMP_pressure;BME280_temperature;BME280_humidity;BME280_pressure;Samples;Min_cycle;Max_cycle;Signal;HPM_P1;HPM_P2
2021/10/10 00:01:06;;;;;;;21.40;9.47;;;;;;;4.98;88.56;102340.63;6141484;23;20023;-86
2021/10/10 00:03:33;;;;;;;12.52;7.20;;;;;;;4.97;88.94;102329.34;6171685;23;20236;-88
2021/10/10 00:06:01;;;;;;;17.67;8.13;;;;;;;4.93;88.81;102343.03;6145667;23;20024;-91
2021/10/10 00:08:30;;;;;;;14.10;7.00;;;;;;;4.92;89.23;102336.06;6172114;23;20021;-90
2021/10/10 00:10:57;;;;;;;10.30;7.47;;;;;;;4.91;89.10;102334.28;6145673;23;20079;-89
2021/10/10 00:13:24;;;;;;;13.25;7.38;;;;;;;4.90;89.31;102336.81;6169888;23;20045;-87
2021/10/10 00:15:50;;;;;;;11.02;6.63;;;;;;;4.86;89.97;102330.59;6171396;23;20025;-88
2021/10/10 00:18:17;;;;;;;11.32;7.30;;;;;;;4.84;89.41;102329.66;6169196;23;20381;-89
2021/10/10 00:20:44;;;;;;;15.52;7.68;;;;;;;4.78;89.34;102329.41;6169592;23;20551;-87
2021/10/10 00:23:10;;;;;;;10.90;6.78;;;;;;;4.74;89.63;102330.09;6172030;23;20035;-90
2021/10/10 00:25:37;;;;;;;11.90;7.38;;;;;;;4.70;90.54;102334.28;6120185;23;20029;-86
2021/10/10 00:28:04;;;;;;;11.18;7.07;;;;;;;4.67;89.82;102326.38;6170172;23;20009;-87
2021/10/10 00:30:30;;;;;;;13.05;7.45;;;;;;;4.68;89.87;102333.34;6142376;23;20024;-90
2021/10/10 00:32:57;;;;;;;17.45;8.05;;;;;;;4.66;90.32;102332.38;6143906;23;20076;-87
2021/10/10 00:35:24;;;;;;;9.60;7.43;;;;;;;4.64;90.49;102327.13;6171043;23;20076;-89
2021/10/10 00:37:51;;;;;;;10.68;6.68;;;;;;;4.63;90.14;102327.94;6167919;23;20458;-91
2021/10/10 00:40:18;;;;;;;11.07;7.57;;;;;;;4.60;90.77;102326.91;6170204;23;20025;-87
2021/10/10 00:42:44;;;;;;;12.32;8.13;;;;;;;4.57;91.18;102324.19;6141620;23;20084;-86
2021/10/10 00:45:11;;;;;;;15.02;8.02;;;;;;;4.52;91.81;102324.00;6144727;23;20551;-92
2021/10/10 00:47:38;;;;;;;12.88;7.88;;;;;;;4.49;91.80;102321.28;6147156;23;20021;-86
2021/10/10 00:50:07;;;;;;;13.52;7.97;;;;;;;4.47;91.87;102323.81;6146027;23;20025;-88
2021/10/10 00:52:41;;;;;;;12.20;7.85;;;;;;;4.44;91.96;102323.66;6145495;23;20016;-89
2021/10/10 00:55:09;;;;;;;15.15;8.20;;;;;;;4.42;91.68;102319.22;6147091;23;20021;-86
2021/10/10 00:57:41;;;;;;;11.13;6.70;;;;;;;4.40;91.40;102326.06;6170991;23;20027;-88
2021/10/10 01:00:08;;;;;;;9.90;6.65;;;;;;;4.35;91.90;102325.00;6142806;23;20428;-91
2021/10/10 01:02:36;;;;;;;10.27;6.70;;;;;;;4.30;91.91;102317.91;6104968;23;20029;-90
2021/10/10 01:05:05;;;;;;;10.95;7.55;;;;;;;4.27;91.87;102322.94;6142256;23;20032;-92
2021/10/10 01:07:32;;;;;;;9.80;7.05;;;;;;;4.23;91.86;102321.03;6172690;23;20021;-89
2021/10/10 01:10:00;;;;;;;12.68;8.13;;;;;;;4.20;91.93;102323.50;6145060;23;20071;-91
2021/10/10 01:12:27;;;;;;;11.38;7.75;;;;;;;4.17;91.94;102320.75;6142608;23;20024;-87
2021/10/10 01:14:55;;;;;;;9.60;6.05;;;;;;;4.13;92.08;102318.84;6146020;23;20031;-88
2021/10/10 01:17:25;;;;;;;11.48;7.30;;;;;;;4.12;92.04;102322.28;6144326;23;20339;-88
2021/10/10 01:19:55;;;;;;;16.73;7.70;;;;;;;4.10;92.02;102316.13;6147447;23;20024;-89
2021/10/10 01:22:23;;;;;;;13.10;7.82;;;;;;;4.05;91.58;102313.31;6147164;23;20352;-88
2021/10/10 01:24:50;;;;;;;12.15;7.03;;;;;;;4.04;92.18;102308.06;6145088;23;20502;-92
2021/10/10 01:27:18;;;;;;;13.50;6.78;;;;;;;4.01;91.56;102305.34;6146519;23;20025;-88
2021/10/10 01:29:45;;;;;;;9.68;6.57;;;;;;;3.96;91.84;102308.63;6144954;23;20114;-91
2021/10/10 01:32:12;;;;;;;14.80;8.38;;;;;;;3.95;92.38;102305.94;6143624;23;20025;-87
2021/10/10 01:34:45;;;;;;;9.50;6.78;;;;;;;3.92;92.23;102295.47;6170305;23;20021;-88
2021/10/10 01:37:15;;;;;;;11.10;7.75;;;;;;;3.90;91.67;102302.28;6145898;23;20021;-91
2021/10/10 01:39:43;;;;;;;11.52;7.47;;;;;;;3.89;92.52;102293.63;6146923;23;20052;-87
2021/10/10 01:42:09;;;;;;;8.80;6.70;;;;;;;3.91;92.48;102296.28;6140967;23;20021;-89
2021/10/10 01:44:36;;;;;;;11.98;7.00;;;;;;;3.90;92.57;102292.81;6147170;23;20119;-92
2021/10/10 01:47:03;;;;;;;14.52;7.47;;;;;;;3.90;92.72;102292.81;6144080;23;20035;-87
2021/10/10 01:49:29;;;;;;;12.30;7.15;;;;;;;3.89;92.32;102287.56;6171543;23;20045;-89
2021/10/10 01:51:57;;;;;;;12.43;7.32;;;;;;;3.87;92.20;102289.19;6122639;23;20031;-89
2021/10/10 01:54:24;;;;;;;12.57;7.80;;;;;;;3.81;92.42;102288.09;6124826;23;20027;-86
2021/10/10 01:56:50;;;;;;;16.33;9.55;;;;;;;3.80;93.48;102281.13;6151151;23;20432;-88
2021/10/10 01:59:17;;;;;;;10.70;6.93;;;;;;;3.81;93.28;102284.63;6121985;23;20059;-87
2021/10/10 02:01:44;;;;;;;15.55;8.82;;;;;;;3.80;93.41;102275.06;6143772;23;20537;-87
2021/10/10 02:04:10;;;;;;;18.95;7.78;;;;;;;3.81;93.91;102276.84;6145804;23;20031;-90
2021/10/10 02:06:37;;;;;;;9.48;7.30;;;;;;;3.80;93.51;102268.19;6173094;23;20028;-87
2021/10/10 02:09:04;;;;;;;9.98;7.35;;;;;;;3.77;93.46;102268.06;6149395;23;20028;-90
2021/10/10 02:11:30;;;;;;;12.00;8.20;;;;;;;3.77;93.79;102267.19;6170291;23;20021;-89
2021/10/10 02:13:57;;;;;;;13.70;8.38;;;;;;;3.77;93.98;102265.47;6173938;23;20079;-88
2021/10/10 02:16:23;;;;;;;11.07;7.35;;;;;;;3.76;94.12;102265.41;6156419;23;20033;-88
2021/10/10 02:18:50;;;;;;;14.35;8.73;;;;;;;3.76;93.95;102262.81;6172836;23;20013;-87
2021/10/10 02:21:17;;;;;;;10.48;6.55;;;;;;;3.75;93.90;102259.31;6171374;23;20021;-90
2021/10/10 02:23:44;;;;;;;14.43;8.75;;;;;;;3.70;93.99;102255.63;6169290;23;20031;-88
2021/10/10 02:26:10;;;;;;;12.73;8.30;;;;;;;3.66;94.09;102252.84;6171547;23;20051;-87
2021/10/10 02:28:37;;;;;;;15.45;7.82;;;;;;;3.62;94.75;102252.72;6144525;23;20029;-87
2021/10/10 02:31:03;;;;;;;10.88;7.25;;;;;;;3.60;94.55;102251.75;6169152;23;20029;-87
2021/10/10 02:33:33;;;;;;;13.35;8.68;;;;;;;3.58;94.49;102253.38;6146285;23;20044;-92
2021/10/10 02:36:00;;;;;;;13.38;8.73;;;;;;;3.53;94.44;102244.50;6147003;23;20695;-90
2021/10/10 02:38:27;;;;;;;13.10;7.90;;;;;;;3.53;94.94;102248.81;6147703;23;20021;-87
2021/10/10 02:40:53;;;;;;;17.88;7.28;;;;;;;3.50;94.45;102244.38;6168291;23;20016;-90
2021/10/10 02:43:20;;;;;;;10.45;7.07;;;;;;;3.51;95.21;102248.75;6147764;23;20063;-88
2021/10/10 02:45:47;;;;;;;12.20;7.55;;;;;;;3.50;94.64;102243.50;6120422;23;20128;-92
2021/10/10 02:48:13;;;;;;;12.13;7.80;;;;;;;3.48;94.58;102244.31;6148143;23;20031;-88
2021/10/10 02:50:40;;;;;;;11.82;7.15;;;;;;;3.46;94.84;102245.94;6145702;23;20432;-90
2021/10/10 02:53:07;;;;;;;13.13;7.53;;;;;;;3.45;95.14;102236.38;6143315;23;20029;-87
2021/10/10 02:55:33;;;;;;;11.77;6.53;;;;;;;3.42;94.51;102233.66;6147296;23;20132;-89
2021/10/10 02:58:00;;;;;;;12.27;7.75;;;;;;;3.40;94.65;102237.00;6169841;23;20013;-86
2021/10/10 03:00:26;;;;;;;14.40;8.73;;;;;;;3.38;95.19;102236.06;6144965;23;20025;-89
2021/10/10 03:02:53;;;;;;;13.85;8.27;;;;;;;3.37;94.92;102232.56;6169284;23;20028;-91
2021/10/10 03:05:20;;;;;;;13.27;7.63;;;;;;;3.32;95.33;102228.88;6167923;23;20666;-86
2021/10/10 03:07:46;;;;;;;10.38;7.53;;;;;;;3.28;95.91;102232.16;6147782;23;20132;-90
2021/10/10 03:10:13;;;;;;;9.10;7.43;;;;;;;3.26;95.72;102234.66;6169333;23;20087;-87
2021/10/10 03:12:40;;;;;;;9.55;6.90;;;;;;;3.21;95.71;102232.69;6175319;23;20017;-89
2021/10/10 03:15:07;;;;;;;13.60;7.68;;;;;;;3.17;96.86;102231.66;6178871;23;20207;-88
2021/10/10 03:17:34;;;;;;;11.02;8.20;;;;;;;3.12;96.71;102231.44;6154653;23;20021;-91
2021/10/10 03:20:00;;;;;;;13.65;8.80;;;;;;;3.09;97.13;102236.47;6171406;23;20080;-90
2021/10/10 03:22:27;;;;;;;14.05;7.80;;;;;;;3.05;97.12;102229.38;6140386;23;20017;-87
2021/10/10 03:24:53;;;;;;;12.55;8.00;;;;;;;2.99;97.08;102221.31;6169452;23;20732;-92
2021/10/10 03:27:25;;;;;;;14.43;7.65;;;;;;;2.98;97.41;102224.72;6168023;23;20032;-86
2021/10/10 03:29:52;;;;;;;12.55;7.65;;;;;;;2.92;97.46;102222.72;6145842;23;20487;-90
2021/10/10 03:32:19;;;;;;;17.15;8.13;;;;;;;2.88;98.24;102223.41;6143631;23;20352;-86
2021/10/10 03:34:46;;;;;;;11.77;8.18;;;;;;;2.83;98.05;102221.38;6118795;23;20025;-89
2021/10/10 03:37:12;;;;;;;12.88;8.20;;;;;;;2.81;98.57;102227.38;6141923;23;20025;-89
2021/10/10 03:39:39;;;;;;;13.40;8.73;;;;;;;2.75;98.46;102216.75;6167578;23;20017;-86
2021/10/10 03:42:05;;;;;;;12.95;7.80;;;;;;;2.76;98.31;102222.81;6144138;23;20025;-90
2021/10/10 03:44:32;;;;;;;14.52;8.95;;;;;;;2.74;98.85;102221.84;6143312;23;20032;-88
2021/10/10 03:46:59;;;;;;;14.88;7.72;;;;;;;2.69;98.82;102216.44;6144603;23;20047;-87
2021/10/10 03:49:26;;;;;;;13.27;8.23;;;;;;;2.69;98.43;102216.44;6171339;23;20024;-89
2021/10/10 03:51:53;;;;;;;11.70;7.57;;;;;;;2.72;98.90;102220.88;6141874;23;20432;-87
2021/10/10 03:57:04;;;;;;;16.27;8.98;;;;;;;2.65;98.81;102209.34;6148028;23;20028;-90
2021/10/10 03:59:30;;;;;;;14.55;8.77;;;;;;;2.64;99.02;102213.63;6171436;23;20049;-86
2021/10/10 04:02:05;;;;;;;16.60;8.27;;;;;;;2.66;99.65;102218.91;6146125;23;20440;-88
2021/10/10 04:04:36;;;;;;;10.90;7.70;;;;;;;2.63;99.94;102209.28;6149090;23;20538;-86
2021/10/10 04:07:08;;;;;;;14.32;8.23;;;;;;;2.63;99.78;102205.81;6171798;23;20440;-86
2021/10/10 04:09:35;;;;;;;13.50;7.95;;;;;;;2.60;99.50;102205.66;6144710;23;20036;-91
2021/10/10 04:12:02;;;;;;;18.60;11.80;;;;;;;2.58;99.76;102209.84;6168540;23;20737;-87
2021/10/10 04:14:34;;;;;;;13.68;8.88;;;;;;;2.56;99.94;102201.16;6168081;23;20103;-86
2021/10/10 04:17:01;;;;;;;15.57;9.10;;;;;;;2.56;100.00;102207.19;6144617;23;20116;-86
2021/10/10 04:19:28;;;;;;;13.98;9.32;;;;;;;2.54;100.00;102207.94;6169254;23;20017;-88
2021/10/10 04:21:55;;;;;;;15.20;8.52;;;;;;;2.52;100.00;102200.13;6168634;23;20009;-87
2021/10/10 04:24:22;;;;;;;16.98;8.95;;;;;;;2.54;100.00;102202.78;6147350;23;20350;-86
2021/10/10 04:26:49;;;;;;;16.17;9.05;;;;;;;2.55;100.00;102201.97;6168701;23;20021;-86
2021/10/10 04:29:24;;;;;;;12.70;8.90;;;;;;;2.56;100.00;102198.56;6145380;23;20021;-92
2021/10/10 04:31:51;;;;;;;17.17;8.65;;;;;;;2.54;100.00;102193.31;6148108;23;20345;-90
2021/10/10 04:34:18;;;;;;;14.25;9.23;;;;;;;2.56;100.00;102196.00;6145601;23;20032;-89
2021/10/10 04:36:45;;;;;;;13.38;8.68;;;;;;;2.54;100.00;102195.00;6146442;23;20025;-87
2021/10/10 04:39:12;;;;;;;14.63;9.43;;;;;;;2.51;100.00;102202.63;6175688;23;20017;-88
2021/10/10 04:41:39;;;;;;;16.45;8.35;;;;;;;2.50;100.00;102193.97;6169047;23;20017;-89
2021/10/10 04:44:06;;;;;;;16.17;9.52;;;;;;;2.49;100.00;102197.41;6141672;23;20016;-87
2021/10/10 04:46:33;;;;;;;14.48;8.63;;;;;;;2.49;100.00;102192.22;6169559;23;20057;-90
2021/10/10 04:49:00;;;;;;;17.73;8.77;;;;;;;2.45;100.00;102182.53;6172346;23;20021;-88
2021/10/10 04:51:27;;;;;;;16.05;9.20;;;;;;;2.42;100.00;102188.41;6142532;23;20017;-87
2021/10/10 04:53:53;;;;;;;17.00;9.80;;;;;;;2.40;100.00;102181.41;6147475;23;20017;-92
2021/10/10 04:56:20;;;;;;;13.15;8.85;;;;;;;2.39;100.00;102177.06;6168570;23;20096;-86
2021/10/10 04:58:47;;;;;;;15.00;9.52;;;;;;;2.39;100.00;102174.50;6171044;23;20021;-87
2021/10/10 05:01:14;;;;;;;14.88;9.77;;;;;;;2.37;100.00;102168.34;6144726;23;20067;-90
2021/10/10 05:03:41;;;;;;;15.75;9.20;;;;;;;2.34;100.00;102166.50;6175376;23;20021;-88
2021/10/10 05:06:08;;;;;;;12.00;8.80;;;;;;;2.31;100.00;102163.78;6152260;23;20021;-88
2021/10/10 05:08:34;;;;;;;14.68;9.50;;;;;;;2.34;100.00;102165.63;6174798;23;20062;-91
2021/10/10 05:11:09;;;;;;;14.95;10.02;;;;;;;2.33;100.00;102153.50;6151837;23;20029;-90
2021/10/10 05:13:38;;;;;;;14.75;9.40;;;;;;;2.34;100.00;102156.16;6171153;23;20017;-89
2021/10/10 05:16:05;;;;;;;13.20;9.23;;;;;;;2.35;100.00;102160.53;6123379;23;20131;-89
2021/10/10 05:18:33;;;;;;;12.52;8.93;;;;;;;2.34;100.00;102161.31;6150344;23;20025;-86
2021/10/10 05:20:59;;;;;;;17.08;9.10;;;;;;;2.36;100.00;102163.97;6145349;23;20344;-86
2021/10/10 05:23:26;;;;;;;14.30;8.93;;;;;;;2.37;100.00;102160.59;6149457;23;20035;-89
2021/10/10 05:25:55;;;;;;;13.93;8.82;;;;;;;2.34;100.00;102161.31;6170959;23;20017;-89
2021/10/10 05:28:22;;;;;;;15.88;9.48;;;;;;;2.35;100.00;102164.78;6172763;23;20436;-87
2021/10/10 05:30:51;;;;;;;14.38;9.77;;;;;;;2.36;100.00;102161.41;6144506;23;20121;-91
2021/10/10 05:33:19;;;;;;;13.95;9.25;;;;;;;2.36;100.00;102161.41;6174139;23;20521;-86
2021/10/10 05:35:46;;;;;;;12.52;8.13;;;;;;;2.33;100.00;102159.53;6148551;23;20111;-87
2021/10/10 05:38:16;;;;;;;17.67;7.90;;;;;;;2.31;100.00;102158.59;6170325;23;20025;-91
2021/10/10 05:40:43;;;;;;;12.55;8.90;;;;;;;2.30;100.00;102164.56;6147708;23;20049;-88
2021/10/10 05:43:13;;;;;;;13.30;8.40;;;;;;;2.29;100.00;102158.53;6169564;23;20028;-88
2021/10/10 05:45:39;;;;;;;15.23;9.48;;;;;;;2.28;100.00;102158.44;6148151;23;20028;-89
2021/10/10 05:48:21;;;;;;;12.88;8.05;;;;;;;2.28;100.00;102161.00;6148879;23;20021;-90
2021/10/10 05:50:53;;;;;;;12.57;8.23;;;;;;;2.27;100.00;102159.28;6173555;23;20032;-87
2021/10/10 05:53:23;;;;;;;18.00;9.88;;;;;;;2.27;100.00;102156.69;6173691;23;20088;-89
2021/10/10 05:55:49;;;;;;;17.00;9.45;;;;;;;2.28;100.00;102155.84;6146319;23;20029;-91
2021/10/10 05:58:19;;;;;;;14.43;9.52;;;;;;;2.28;100.00;102150.69;6147777;23;20025;-87
2021/10/10 06:00:46;;;;;;;18.95;8.98;;;;;;;2.30;100.00;102162.00;6120923;23;20333;-87
2021/10/10 06:03:15;;;;;;;16.02;8.45;;;;;;;2.31;100.00;102156.03;6176452;23;20013;-91
2021/10/10 06:05:42;;;;;;;15.93;9.38;;;;;;;2.31;100.00;102150.84;6151065;23;20039;-88
2021/10/10 06:08:08;;;;;;;14.73;8.98;;;;;;;2.30;100.00;102146.47;6174575;23;20025;-88
2021/10/10 06:10:38;;;;;;;14.80;9.27;;;;;;;2.30;100.00;102139.59;6152643;23;20032;-90
2021/10/10 06:13:05;;;;;;;11.93;8.70;;;;;;;2.33;100.00;102146.63;6174163;23;20017;-87
2021/10/10 06:15:34;;;;;;;14.05;8.65;;;;;;;2.38;100.00;102141.69;6162904;23;20029;-90
2021/10/10 06:18:02;;;;;;;13.27;8.75;;;;;;;2.41;100.00;102140.16;6176014;23;20491;-87
2021/10/10 06:20:28;;;;;;;14.60;8.80;;;;;;;2.45;100.00;102139.47;6178639;23;20083;-90
2021/10/10 06:22:56;;;;;;;12.65;8.18;;;;;;;2.51;100.00;102143.19;6189861;23;20021;-89
2021/10/10 06:25:23;;;;;;;14.55;8.82;;;;;;;2.55;100.00;102143.38;6190221;23;20023;-93
2021/10/10 06:27:50;;;;;;;12.30;8.80;;;;;;;2.59;100.00;102136.66;6144221;23;20025;-92
2021/10/10 06:30:18;;;;;;;12.85;9.15;;;;;;;2.63;100.00;102136.91;6152679;23;20020;-86
2021/10/10 06:32:44;;;;;;;13.52;9.05;;;;;;;2.67;100.00;102137.91;6151207;23;20029;-91
2021/10/10 06:35:11;;;;;;;11.93;9.00;;;;;;;2.73;100.00;102134.75;6151254;23;20028;-86
2021/10/10 06:37:38;;;;;;;15.45;8.80;;;;;;;2.77;100.00;102145.28;6149151;23;20032;-88
2021/10/10 06:40:06;;;;;;;12.52;7.78;;;;;;;2.83;100.00;102149.88;6176175;23;20025;-89
2021/10/10 06:42:33;;;;;;;12.45;8.63;;;;;;;2.89;100.00;102142.38;6172712;23;20432;-89
2021/10/10 06:45:00;;;;;;;11.00;8.60;;;;;;;2.97;100.00;102135.88;6174498;23;20232;-88
2021/10/10 06:47:28;;;;;;;10.93;7.80;;;;;;;3.25;100.00;102133.66;6133787;23;20025;-85
2021/10/10 06:49:55;;;;;;;16.50;8.60;;;;;;;3.81;100.00;102134.38;6152060;23;20063;-88
2021/10/10 06:52:21;;;;;;;16.02;8.98;;;;;;;4.45;98.52;102127.50;6151570;23;20402;-89
2021/10/10 06:54:48;;;;;;;13.98;8.55;;;;;;;5.07;94.91;102133.34;6176784;23;20020;-85
2021/10/10 06:57:15;;;;;;;10.38;6.75;;;;;;;5.52;90.57;102132.38;6154740;23;20115;-86
2021/10/10 06:59:42;;;;;;;9.60;7.45;;;;;;;5.88;87.73;102126.69;6150127;23;20380;-88
2021/10/10 07:02:12;;;;;;;13.05;7.35;;;;;;;6.27;85.07;102127.97;6149586;23;20025;-92
2021/10/10 07:04:39;;;;;;;8.88;7.00;;;;;;;6.60;83.80;102127.31;6175254;23;20071;-90
2021/10/10 07:07:10;;;;;;;8.40;6.75;;;;;;;6.99;81.67;102131.06;6174661;23;20044;-88
2021/10/10 07:09:36;;;;;;;11.10;6.40;;;;;;;7.27;78.94;102130.16;6176314;23;20821;-90
2021/10/10 07:12:11;;;;;;;10.38;6.60;;;;;;;7.61;78.38;102128.47;6149826;23;20020;-87
2021/10/10 07:14:41;;;;;;;12.45;6.57;;;;;;;7.85;73.53;102133.47;6186582;23;20044;-92
2021/10/10 07:17:10;;;;;;;10.65;7.15;;;;;;;8.26;75.42;102133.63;6185606;23;20039;-93
2021/10/10 07:19:43;;;;;;;10.40;6.40;;;;;;;8.73;74.07;102139.97;6153605;23;20028;-86
2021/10/10 07:22:26;;;;;;;11.50;6.00;;;;;;;9.15;71.64;102135.63;6129468;23;20028;-89
2021/10/10 07:25:00;;;;;;;7.60;6.32;;;;;;;9.39;68.30;102135.25;6148968;23;20443;-93
2021/10/10 07:27:27;;;;;;;8.68;6.20;;;;;;;9.52;68.02;102131.16;6174686;23;20021;-86
2021/10/10 07:29:54;;;;;;;8.07;6.22;;;;;;;9.37;65.43;102142.19;6147363;23;20024;-90
2021/10/10 07:32:20;;;;;;;8.88;7.15;;;;;;;9.42;66.60;102145.78;6148256;23;20111;-87
2021/10/10 07:34:47;;;;;;;9.05;5.72;;;;;;;8.94;67.11;102130.00;6146836;23;20107;-90
2021/10/10 07:37:14;;;;;;;10.13;6.35;;;;;;;8.15;67.18;102142.94;6145970;23;20021;-86
2021/10/10 07:39:40;;;;;;;7.57;6.35;;;;;;;7.50;69.84;102145.56;6172179;23;20025;-89
2021/10/10 07:42:07;;;;;;;10.50;6.85;;;;;;;7.10;71.51;102147.91;6172013;23;20019;-90
2021/10/10 07:44:38;;;;;;;10.07;6.95;;;;;;;6.77;72.62;102148.66;6148746;23;20107;-89
2021/10/10 07:47:17;;;;;;;11.10;6.03;;;;;;;6.54;74.02;102155.72;6148447;23;20478;-89
2021/10/10 07:49:48;;;;;;;10.88;5.75;;;;;;;6.35;74.89;102155.16;6153327;23;20116;-91
2021/10/10 07:52:14;;;;;;;9.10;6.45;;;;;;;6.25;75.42;102156.53;6174213;23;20071;-88
2021/10/10 07:54:41;;;;;;;10.05;6.40;;;;;;;6.15;75.41;102156.19;6152425;23;20021;-86
2021/10/10 07:57:08;;;;;;;9.02;6.40;;;;;;;6.10;75.45;102149.13;6179629;23;20045;-90
2021/10/10 07:59:35;;;;;;;9.13;6.80;;;;;;;6.08;76.35;102156.00;6130902;23;20033;-86
2021/10/10 08:02:02;;;;;;;11.63;7.05;;;;;;;6.04;76.62;102154.13;6181976;23;20463;-86
2021/10/10 08:04:29;;;;;;;8.15;6.45;;;;;;;6.06;76.56;102159.38;6185704;23;20075;-86
2021/10/10 08:07:01;;;;;;;13.48;7.05;;;;;;;6.05;76.82;102153.28;6184973;23;20028;-90
2021/10/10 08:09:27;;;;;;;9.88;7.50;;;;;;;6.09;77.08;102147.34;6183233;23;20040;-87
2021/10/10 08:11:56;;;;;;;10.20;6.45;;;;;;;6.16;76.43;102147.56;6150488;23;20025;-93
2021/10/10 08:14:23;;;;;;;13.77;6.97;;;;;;;6.21;75.81;102141.69;6156043;23;20052;-86
2021/10/10 08:17:03;;;;;;;8.65;6.28;;;;;;;6.28;75.49;102150.56;6187064;23;20502;-86
2021/10/10 08:19:35;;;;;;;11.40;6.18;;;;;;;6.36;75.43;102145.63;6185915;23;20427;-88
2021/10/10 08:22:03;;;;;;;8.93;5.60;;;;;;;6.42;75.06;102144.09;6158886;23;20344;-88
2021/10/10 08:24:30;;;;;;;12.82;6.05;;;;;;;6.49;74.81;102150.38;6160384;23;20428;-87
2021/10/10 08:27:45;;;;;;;10.10;6.60;;;;;;;6.54;74.51;102140.13;6160962;23;20400;-89
2021/10/10 08:30:14;;;;;;;;;;;;;;;6.60;74.06;102138.59;6163298;23;20017;-86
2021/10/10 08:32:43;;;;;;;9.27;6.28;;;;;;;6.65;74.46;102141.34;6159682;23;20220;-91
2021/10/10 08:35:10;;;;;;;10.93;6.75;;;;;;;6.72;74.35;102143.28;6186094;23;20432;-87
2021/10/10 08:37:37;;;;;;;10.13;6.45;;;;;;;6.78;74.43;102138.28;6161199;23;20037;-86
2021/10/10 08:40:07;;;;;;;8.23;6.50;;;;;;;6.89;74.47;102148.13;6185462;23;20021;-86
2021/10/10 08:42:54;;;;;;;10.45;7.07;;;;;;;6.95;74.37;102144.00;6185714;23;20446;-88
2021/10/10 08:48:46;;;;;;;10.45;6.72;;;;;;;7.16;74.03;102129.84;6186234;23;20029;-87
2021/10/10 08:51:24;;;;;;;11.88;6.38;;;;;;;7.23;74.02;102130.91;6163086;23;20442;-87
2021/10/10 08:54:13;;;;;;;10.10;7.07;;;;;;;7.35;73.13;102133.84;6166386;23;20104;-86
2021/10/10 08:56:51;;;;;;;10.27;6.50;;;;;;;7.52;72.79;102131.75;6185267;23;20021;-89
2021/10/10 08:59:23;;;;;;;11.02;6.45;;;;;;;7.68;72.30;102129.53;6152054;23;20021;-91
2021/10/10 09:01:54;;;;;;;7.43;6.00;;;;;;;7.84;71.69;102129.09;6171240;23;20028;-89
2021/10/10 09:04:22;;;;;;;13.45;7.65;;;;;;;8.03;70.48;102127.84;6149601;23;20115;-90
2021/10/10 09:06:50;;;;;;;11.43;6.97;;;;;;;8.21;69.19;102123.94;6154605;23;20071;-94
2021/10/10 09:09:36;;;;;;;11.13;6.82;;;;;;;8.37;68.64;102127.78;6176219;23;20084;-88
2021/10/10 09:12:14;;;;;;;10.10;6.20;;;;;;;8.52;67.67;102116.88;6177953;23;20017;-89
2021/10/10 09:14:54;;;;;;;9.70;6.18;;;;;;;8.67;67.42;102117.22;6177668;23;20006;-88
2021/10/10 09:17:23;;;;;;;7.95;5.80;;;;;;;8.78;67.71;102127.91;6127205;23;20103;-86
2021/10/10 09:19:59;;;;;;;8.25;5.32;;;;;;;8.92;66.97;102123.84;6129669;23;20112;-86
2021/10/10 09:22:27;;;;;;;9.98;6.35;;;;;;;9.08;65.75;102119.81;6160794;23;20017;-83
2021/10/10 09:24:58;;;;;;;9.07;6.32;;;;;;;9.23;65.57;102116.66;6153451;23;20033;-88
2021/10/10 09:27:26;;;;;;;9.55;5.68;;;;;;;9.41;64.34;102118.75;6150056;23;20029;-85
2021/10/10 09:29:55;;;;;;;7.47;4.95;;;;;;;9.58;64.71;102113.84;6175670;23;20756;-92
2021/10/10 09:32:28;;;;;;;7.85;5.97;;;;;;;9.76;63.96;102117.66;6150012;23;20025;-91
2021/10/10 09:34:55;;;;;;;8.45;6.32;;;;;;;9.94;62.98;102117.09;6149705;23;20337;-87
2021/10/10 09:37:27;;;;;;;11.27;5.90;;;;;;;10.14;63.20;102117.41;6163316;23;20132;-93
2021/10/10 09:39:59;;;;;;;8.30;5.30;;;;;;;10.37;63.00;102122.19;6170674;22;20092;-92
2021/10/10 09:42:38;;;;;;;8.57;5.60;;;;;;;10.65;62.13;102119.97;6207213;23;20044;-88
2021/10/10 09:45:29;;;;;;;10.30;7.00;;;;;;;10.89;60.79;102114.19;6146796;23;20017;-85
2021/10/10 09:48:03;;;;;;;7.50;5.50;;;;;;;11.16;61.98;102099.66;6173937;23;20099;-88
2021/10/10 09:50:36;;;;;;;9.50;6.30;;;;;;;11.38;59.75;102093.81;6198683;23;20017;-89
2021/10/10 09:53:10;;;;;;;8.50;5.72;;;;;;;11.63;60.00;102101.06;6174215;23;20017;-88
2021/10/10 09:56:06;;;;;;;9.15;5.50;;;;;;;11.91;58.66;102100.47;6174728;23;20025;-93
2021/10/10 09:58:39;;;;;;;9.23;6.32;;;;;;;12.20;59.18;102110.34;6175909;23;20017;-90
2021/10/10 10:01:19;;;;;;;10.73;6.65;;;;;;;12.43;58.21;102101.75;6126764;23;20095;-88
2021/10/10 10:04:04;;;;;;;6.90;5.63;;;;;;;12.67;57.53;102098.41;6188681;23;20023;-91
2021/10/10 10:06:34;;;;;;;8.13;6.15;;;;;;;12.88;57.53;102095.00;6190467;23;20021;-88
2021/10/10 10:09:12;;;;;;;6.65;5.88;;;;;;;13.16;56.91;102094.25;6190170;23;20096;-90
2021/10/10 10:11:46;;;;;;;11.23;6.15;;;;;;;13.48;56.39;102097.00;6214149;23;20025;-85
2021/10/10 10:14:17;;;;;;;9.98;6.45;;;;;;;13.67;54.66;102099.66;6190204;23;20040;-88
2021/10/10 10:16:44;;;;;;;9.13;6.68;;;;;;;13.88;54.70;102107.59;6197889;23;20040;-92
2021/10/10 10:19:16;;;;;;;7.95;5.85;;;;;;;14.05;54.61;102104.94;6190090;23;20021;-87
2021/10/10 10:21:47;;;;;;;5.43;4.82;;;;;;;14.25;54.05;102103.16;6177268;23;20028;-89
2021/10/10 10:24:15;;;;;;;9.13;5.82;;;;;;;14.46;52.32;102097.00;6157561;23;20024;-90
2021/10/10 10:26:42;;;;;;;6.65;4.90;;;;;;;14.54;51.69;102093.44;6159111;23;20044;-90
2021/10/10 10:29:23;;;;;;;6.53;4.38;;;;;;;14.60;50.63;102094.31;6153173;23;20040;-87
2021/10/10 10:31:53;;;;;;;4.95;4.47;;;;;;;14.73;49.45;102085.53;6199422;23;20025;-86
2021/10/10 10:34:33;;;;;;;4.70;4.10;;;;;;;14.79;49.56;102090.78;6178086;23;20012;-90
2021/10/10 10:37:11;;;;;;;7.15;4.68;;;;;;;14.93;49.11;102088.09;6153116;23;20024;-87
2021/10/10 10:39:49;;;;;;;7.95;4.68;;;;;;;15.16;46.85;102085.38;6149724;23;20017;-87
2021/10/10 10:42:25;;;;;;;5.03;4.38;;;;;;;15.36;47.03;102084.38;6176215;23;20093;-89
2021/10/10 10:44:53;;;;;;;8.13;5.25;;;;;;;15.64;46.63;102092.97;6175603;23;20107;-88
2021/10/10 10:47:24;;;;;;;9.90;5.18;;;;;;;15.78;44.09;102086.72;6151086;23;20021;-88
2021/10/10 10:49:52;;;;;;;14.88;5.32;;;;;;;16.06;45.16;102097.97;6147655;23;20508;-88
2021/10/10 10:52:40;;;;;;;7.10;4.05;;;;;;;16.32;44.36;102089.81;6176510;23;20097;-87
2021/10/10 10:55:25;;;;;;;7.68;5.28;;;;;;;16.60;42.15;102083.34;6152917;23;20489;-87
2021/10/10 10:58:09;;;;;;;9.38;4.22;;;;;;;16.67;43.63;102085.91;6180456;23;20044;-86
2021/10/10 11:00:44;;;;;;;7.18;4.10;;;;;;;16.70;43.91;102077.94;6182496;23;20436;-85
2021/10/10 11:03:23;;;;;;;7.45;4.60;;;;;;;16.69;43.57;102070.03;6186525;23;20023;-89
2021/10/10 11:05:58;;;;;;;5.32;4.38;;;;;;;16.65;44.47;102057.75;6187232;23;20051;-87
2021/10/10 11:08:25;;;;;;;6.22;4.45;;;;;;;16.53;43.95;102070.19;6180484;23;20020;-85
2021/10/10 11:11:00;;;;;;;6.93;4.47;;;;;;;16.31;44.03;102060.72;6175763;23;20021;-86
2021/10/10 11:13:39;;;;;;;8.30;5.05;;;;;;;16.13;43.75;102051.25;6174446;23;20682;-87
2021/10/10 11:16:12;;;;;;;8.48;4.55;;;;;;;16.03;44.80;102037.25;6174415;23;20025;-87
2021/10/10 11:19:01;;;;;;;4.97;4.10;;;;;;;15.89;44.09;102042.63;6146273;23;20060;-87
2021/10/10 11:21:39;;;;;;;5.07;4.57;;;;;;;15.81;43.87;102037.47;6157258;23;20031;-88
2021/10/10 11:24:19;;;;;;;7.97;4.15;;;;;;;15.68;45.09;102035.75;6199551;22;20009;-88
2021/10/10 11:26:47;;;;;;;5.65;4.38;;;;;;;15.71;44.98;102033.97;6186606;22;20474;-87
2021/10/10 11:29:16;;;;;;;7.82;4.30;;;;;;;15.66;44.87;102027.00;6173648;23;20116;-87
2021/10/10 11:31:45;;;;;;;6.93;4.18;;;;;;;15.55;45.38;102025.31;6145052;23;20040;-87
2021/10/10 11:34:15;;;;;;;7.50;4.65;;;;;;;15.56;45.54;102026.16;6175129;23;20487;-87
2021/10/10 11:36:54;;;;;;;4.55;3.88;;;;;;;15.63;45.69;102030.53;6174986;23;20025;-88
2021/10/10 11:39:30;;;;;;;6.53;4.60;;;;;;;15.74;45.42;102037.47;6152800;23;20067;-88
2021/10/10 11:42:04;;;;;;;5.07;4.45;;;;;;;15.91;45.08;102040.00;6156219;23;20025;-88